sensor_id;sensor_type;location;lat;lon;timestamp;P1;durP1;ratioP1;P2;durP2;ratioP2
43823;SDS011;29470;53.550;9.926;2022-07-23T00:01:39;5.63;;;1.35;;
43823;SDS011;29470;53.550;9.926;2022-07-23T00:06:43;4.10;;;1.45;;
43823;SDS011;29470;53.550;9.926;2022-07-23T00:11:46;2.25;;;1.33;;
43823;SDS011;29470;53.550;9.926;2022-07-23T00:16:50;5.05;;;1.67;;
43823;SDS011;29470;53.550;9.926;2022-07-23T00:21:53;3.47;;;1.40;;
43823;SDS011;29470;53.550;9.926;2022-07-23T00:26:56;9.07;;;2.20;;
43823;SDS011;29470;53.550;9.926;2022-07-23T00:32:00;3.85;;;1.52;;
43823;SDS011;29470;53.550;9.926;2022-07-23T00:37:03;5.70;;;1.60;;
43823;SDS011;29470;53.550;9.926;2022-07-23T00:42:06;8.00;;;1.50;;
43823;SDS011;29470;53.550;9.926;2022-07-23T00:47:10;3.88;;;1.85;;
43823;SDS011;29470;53.550;9.926;2022-07-23T00:52:13;5.43;;;1.98;;
43823;SDS011;29470;53.550;9.926;2022-07-23T00:57:17;4.63;;;1.60;;
43823;SDS011;29470;53.550;9.926;2022-07-23T01:02:26;2.97;;;1.30;;
43823;SDS011;29470;53.550;9.926;2022-07-23T01:07:29;2.38;;;1.30;;
43823;SDS011;29470;53.550;9.926;2022-07-23T01:12:32;5.28;;;1.40;;
43823;SDS011;29470;53.550;9.926;2022-07-23T01:17:41;4.25;;;1.30;;
43823;SDS011;29470;53.550;9.926;2022-07-23T01:22:47;4.13;;;1.20;;
43823;SDS011;29470;53.550;9.926;2022-07-23T01:27:50;3.00;;;1.20;;
43823;SDS011;29470;53.550;9.926;2022-07-23T01:32:54;3.78;;;1.35;;
43823;SDS011;29470;53.550;9.926;2022-07-23T01:37:59;5.65;;;1.60;;
43823;SDS011;29470;53.550;9.926;2022-07-23T01:43:03;4.80;;;1.60;;
43823;SDS011;29470;53.550;9.926;2022-07-23T01:48:09;3.88;;;1.40;;
43823;SDS011;29470;53.550;9.926;2022-07-23T01:53:20;6.45;;;1.60;;
43823;SDS011;29470;53.550;9.926;2022-07-23T01:58:23;4.13;;;1.40;;
43823;SDS011;29470;53.550;9.926;2022-07-23T02:03:26;2.92;;;1.20;;
43823;SDS011;29470;53.550;9.926;2022-07-23T02:08:30;3.00;;;1.10;;
43823;SDS011;29470;53.550;9.926;2022-07-23T02:13:35;3.17;;;1.27;;
43823;SDS011;29470;53.550;9.926;2022-07-23T02:18:38;4.63;;;1.40;;
43823;SDS011;29470;53.550;9.926;2022-07-23T02:23:42;4.18;;;1.40;;
43823;SDS011;29470;53.550;9.926;2022-07-23T02:28:47;5.07;;;1.60;;
43823;SDS011;29470;53.550;9.926;2022-07-23T02:33:51;3.80;;;1.58;;
43823;SDS011;29470;53.550;9.926;2022-07-23T02:38:56;3.25;;;1.60;;
43823;SDS011;29470;53.550;9.926;2022-07-23T02:44:03;4.85;;;1.45;;
43823;SDS011;29470;53.550;9.926;2022-07-23T02:49:06;3.38;;;1.52;;
43823;SDS011;29470;53.550;9.926;2022-07-23T02:54:11;5.10;;;2.10;;
43823;SDS011;29470;53.550;9.926;2022-07-23T02:59:13;3.03;;;1.70;;
43823;SDS011;29470;53.550;9.926;2022-07-23T03:04:16;4.53;;;1.90;;
43823;SDS011;29470;53.550;9.926;2022-07-23T03:09:21;2.75;;;1.50;;
43823;SDS011;29470;53.550;9.926;2022-07-23T03:14:23;5.65;;;1.70;;
43823;SDS011;29470;53.550;9.926;2022-07-23T03:19:26;4.38;;;1.65;;
43823;SDS011;29470;53.550;9.926;2022-07-23T03:24:30;2.58;;;1.80;;
43823;SDS011;29470;53.550;9.926;2022-07-23T03:29:48;2.88;;;1.60;;
43823;SDS011;29470;53.550;9.926;2022-07-23T03:34:52;2.92;;;1.90;;
43823;SDS011;29470;53.550;9.926;2022-07-23T03:39:57;3.92;;;2.10;;
43823;SDS011;29470;53.550;9.926;2022-07-23T03:45:00;5.50;;;2.30;;
43823;SDS011;29470;53.550;9.926;2022-07-23T03:50:03;5.35;;;2.53;;
43823;SDS011;29470;53.550;9.926;2022-07-23T03:55:08;6.10;;;2.28;;
43823;SDS011;29470;53.550;9.926;2022-07-23T04:00:11;3.10;;;2.00;;
43823;SDS011;29470;53.550;9.926;2022-07-23T04:05:16;7.43;;;2.80;;
43823;SDS011;29470;53.550;9.926;2022-07-23T04:10:25;4.82;;;2.17;;
43823;SDS011;29470;53.550;9.926;2022-07-23T04:15:28;7.25;;;2.30;;
43823;SDS011;29470;53.550;9.926;2022-07-23T04:20:31;3.20;;;2.15;;
43823;SDS011;29470;53.550;9.926;2022-07-23T04:25:42;5.03;;;2.60;;
43823;SDS011;29470;53.550;9.926;2022-07-23T04:30:46;6.97;;;2.90;;
43823;SDS011;29470;53.550;9.926;2022-07-23T04:35:50;6.15;;;2.85;;
43823;SDS011;29470;53.550;9.926;2022-07-23T04:40:55;5.28;;;2.80;;
43823;SDS011;29470;53.550;9.926;2022-07-23T04:45:59;4.18;;;2.90;;
43823;SDS011;29470;53.550;9.926;2022-07-23T04:51:07;6.13;;;3.05;;
43823;SDS011;29470;53.550;9.926;2022-07-23T04:56:12;5.05;;;2.28;;
43823;SDS011;29470;53.550;9.926;2022-07-23T05:01:15;5.68;;;1.90;;
43823;SDS011;29470;53.550;9.926;2022-07-23T05:06:19;3.92;;;1.63;;
43823;SDS011;29470;53.550;9.926;2022-07-23T05:11:23;2.33;;;1.30;;
43823;SDS011;29470;53.550;9.926;2022-07-23T05:16:28;3.65;;;1.48;;
43823;SDS011;29470;53.550;9.926;2022-07-23T05:21:36;3.80;;;1.45;;
43823;SDS011;29470;53.550;9.926;2022-07-23T05:26:41;4.35;;;1.20;;
43823;SDS011;29470;53.550;9.926;2022-07-23T05:31:44;2.20;;;1.00;;
43823;SDS011;29470;53.550;9.926;2022-07-23T05:36:48;5.45;;;1.20;;
43823;SDS011;29470;53.550;9.926;2022-07-23T05:41:52;5.72;;;1.85;;
43823;SDS011;29470;53.550;9.926;2022-07-23T05:46:55;4.68;;;2.20;;
43823;SDS011;29470;53.550;9.926;2022-07-23T05:52:03;5.30;;;1.88;;
43823;SDS011;29470;53.550;9.926;2022-07-23T05:57:28;12.45;;;2.10;;
43823;SDS011;29470;53.550;9.926;2022-07-23T06:02:31;2.88;;;1.48;;
43823;SDS011;29470;53.550;9.926;2022-07-23T06:07:34;4.00;;;1.70;;
43823;SDS011;29470;53.550;9.926;2022-07-23T06:12:39;4.30;;;2.00;;
43823;SDS011;29470;53.550;9.926;2022-07-23T06:17:42;9.07;;;2.45;;
43823;SDS011;29470;53.550;9.926;2022-07-23T06:22:46;3.60;;;2.10;;
43823;SDS011;29470;53.550;9.926;2022-07-23T06:27:50;4.70;;;2.10;;
43823;SDS011;29470;53.550;9.926;2022-07-23T06:32:53;4.22;;;2.20;;
43823;SDS011;29470;53.550;9.926;2022-07-23T06:37:56;6.80;;;2.13;;
43823;SDS011;29470;53.550;9.926;2022-07-23T06:43:02;8.13;;;2.08;;
43823;SDS011;29470;53.550;9.926;2022-07-23T06:48:10;3.28;;;1.92;;
43823;SDS011;29470;53.550;9.926;2022-07-23T06:53:13;3.70;;;1.70;;
43823;SDS011;29470;53.550;9.926;2022-07-23T06:58:17;3.67;;;1.75;;
43823;SDS011;29470;53.550;9.926;2022-07-23T07:03:20;3.15;;;1.60;;
43823;SDS011;29470;53.550;9.926;2022-07-23T07:08:23;3.10;;;1.27;;
43823;SDS011;29470;53.550;9.926;2022-07-23T07:13:28;1.50;;;0.85;;
43823;SDS011;29470;53.550;9.926;2022-07-23T07:18:30;3.90;;;1.52;;
43823;SDS011;29470;53.550;9.926;2022-07-23T07:23:33;5.65;;;1.52;;
43823;SDS011;29470;53.550;9.926;2022-07-23T07:28:38;1.88;;;0.93;;
43823;SDS011;29470;53.550;9.926;2022-07-23T07:33:40;7.35;;;1.23;;
43823;SDS011;29470;53.550;9.926;2022-07-23T07:38:45;1.85;;;0.63;;
43823;SDS011;29470;53.550;9.926;2022-07-23T07:43:51;1.25;;;0.52;;
43823;SDS011;29470;53.550;9.926;2022-07-23T07:48:54;0.93;;;0.50;;
43823;SDS011;29470;53.550;9.926;2022-07-23T07:53:58;2.28;;;0.85;;
43823;SDS011;29470;53.550;9.926;2022-07-23T07:59:04;18.35;;;1.35;;
43823;SDS011;29470;53.550;9.926;2022-07-23T08:04:08;2.90;;;0.70;;
43823;SDS011;29470;53.550;9.926;2022-07-23T08:09:10;4.03;;;0.80;;
43823;SDS011;29470;53.550;9.926;2022-07-23T08:14:15;2.90;;;1.55;;
43823;SDS011;29470;53.550;9.926;2022-07-23T08:19:18;3.00;;;0.80;;
43823;SDS011;29470;53.550;9.926;2022-07-23T08:24:21;1.30;;;0.70;;
43823;SDS011;29470;53.550;9.926;2022-07-23T08:29:25;1.00;;;0.60;;
43823;SDS011;29470;53.550;9.926;2022-07-23T08:34:28;2.85;;;0.75;;
43823;SDS011;29470;53.550;9.926;2022-07-23T08:39:30;1.17;;;0.60;;
43823;SDS011;29470;53.550;9.926;2022-07-23T08:44:35;2.40;;;0.80;;
43823;SDS011;29470;53.550;9.926;2022-07-23T08:49:38;1.27;;;0.50;;
43823;SDS011;29470;53.550;9.926;2022-07-23T08:54:43;1.05;;;0.52;;
43823;SDS011;29470;53.550;9.926;2022-07-23T08:59:47;1.10;;;0.50;;
43823;SDS011;29470;53.550;9.926;2022-07-23T09:04:50;1.88;;;0.80;;
43823;SDS011;29470;53.550;9.926;2022-07-23T09:10:04;0.57;;;0.47;;
43823;SDS011;29470;53.550;9.926;2022-07-23T09:15:10;1.90;;;0.70;;
43823;SDS011;29470;53.550;9.926;2022-07-23T09:20:15;2.67;;;0.77;;
43823;SDS011;29470;53.550;9.926;2022-07-23T09:25:19;1.85;;;0.60;;
43823;SDS011;29470;53.550;9.926;2022-07-23T09:30:24;1.25;;;0.70;;
43823;SDS011;29470;53.550;9.926;2022-07-23T09:35:33;1.25;;;0.90;;
43823;SDS011;29470;53.550;9.926;2022-07-23T09:40:46;1.80;;;0.95;;
43823;SDS011;29470;53.550;9.926;2022-07-23T09:46:18;1.00;;;0.50;;
43823;SDS011;29470;53.550;9.926;2022-07-23T09:51:24;1.58;;;0.70;;
43823;SDS011;29470;53.550;9.926;2022-07-23T09:56:33;1.60;;;0.73;;
43823;SDS011;29470;53.550;9.926;2022-07-23T10:01:40;1.45;;;0.60;;
43823;SDS011;29470;53.550;9.926;2022-07-23T10:06:43;1.60;;;0.93;;
43823;SDS011;29470;53.550;9.926;2022-07-23T10:12:09;1.83;;;0.60;;
43823;SDS011;29470;53.550;9.926;2022-07-23T10:17:35;1.25;;;0.57;;
43823;SDS011;29470;53.550;9.926;2022-07-23T10:22:40;1.63;;;0.45;;
43823;SDS011;29470;53.550;9.926;2022-07-23T10:27:58;1.38;;;0.50;;
43823;SDS011;29470;53.550;9.926;2022-07-23T10:33:22;1.30;;;0.50;;
43823;SDS011;29470;53.550;9.926;2022-07-23T10:38:34;0.60;;;0.50;;
43823;SDS011;29470;53.550;9.926;2022-07-23T10:43:44;0.60;;;0.40;;
43823;SDS011;29470;53.550;9.926;2022-07-23T10:48:51;3.50;;;0.90;;
43823;SDS011;29470;53.550;9.926;2022-07-23T10:54:26;0.70;;;0.60;;
43823;SDS011;29470;53.550;9.926;2022-07-23T10:59:29;1.30;;;0.77;;
43823;SDS011;29470;53.550;9.926;2022-07-23T11:04:49;1.45;;;0.60;;
43823;SDS011;29470;53.550;9.926;2022-07-23T11:09:53;1.10;;;0.63;;
43823;SDS011;29470;53.550;9.926;2022-07-23T11:15:00;1.25;;;0.55;;
43823;SDS011;29470;53.550;9.926;2022-07-23T11:20:14;0.82;;;0.50;;
43823;SDS011;29470;53.550;9.926;2022-07-23T11:25:30;1.50;;;0.60;;
43823;SDS011;29470;53.550;9.926;2022-07-23T11:30:39;1.02;;;0.57;;
43823;SDS011;29470;53.550;9.926;2022-07-23T11:35:46;1.33;;;0.50;;
43823;SDS011;29470;53.550;9.926;2022-07-23T11:40:52;1.27;;;0.52;;
43823;SDS011;29470;53.550;9.926;2022-07-23T11:45:57;1.20;;;0.63;;
43823;SDS011;29470;53.550;9.926;2022-07-23T11:51:04;2.38;;;0.90;;
43823;SDS011;29470;53.550;9.926;2022-07-23T11:56:07;3.20;;;0.70;;
43823;SDS011;29470;53.550;9.926;2022-07-23T12:01:12;3.03;;;1.02;;
43823;SDS011;29470;53.550;9.926;2022-07-23T12:06:16;1.60;;;0.82;;
43823;SDS011;29470;53.550;9.926;2022-07-23T12:11:20;2.22;;;1.27;;
43823;SDS011;29470;53.550;9.926;2022-07-23T12:16:23;3.20;;;0.90;;
43823;SDS011;29470;53.550;9.926;2022-07-23T12:21:28;1.80;;;1.00;;
43823;SDS011;29470;53.550;9.926;2022-07-23T12:26:31;2.90;;;0.93;;
43823;SDS011;29470;53.550;9.926;2022-07-23T12:31:34;2.30;;;1.00;;
43823;SDS011;29470;53.550;9.926;2022-07-23T12:36:40;2.42;;;0.90;;
43823;SDS011;29470;53.550;9.926;2022-07-23T12:41:51;2.13;;;1.00;;
43823;SDS011;29470;53.550;9.926;2022-07-23T12:46:55;3.13;;;1.17;;
43823;SDS011;29470;53.550;9.926;2022-07-23T12:52:00;2.60;;;0.77;;
43823;SDS011;29470;53.550;9.926;2022-07-23T12:57:17;2.35;;;0.80;;
43823;SDS011;29470;53.550;9.926;2022-07-23T13:02:20;1.50;;;0.77;;
43823;SDS011;29470;53.550;9.926;2022-07-23T13:07:24;3.55;;;0.93;;
43823;SDS011;29470;53.550;9.926;2022-07-23T13:12:27;2.33;;;1.55;;
43823;SDS011;29470;53.550;9.926;2022-07-23T13:17:31;3.42;;;1.33;;
43823;SDS011;29470;53.550;9.926;2022-07-23T13:22:35;2.90;;;1.02;;
43823;SDS011;29470;53.550;9.926;2022-07-23T13:27:38;2.17;;;1.00;;
43823;SDS011;29470;53.550;9.926;2022-07-23T13:32:40;3.38;;;1.30;;
43823;SDS011;29470;53.550;9.926;2022-07-23T13:37:46;3.40;;;1.58;;
43823;SDS011;29470;53.550;9.926;2022-07-23T13:42:49;2.50;;;1.20;;
43823;SDS011;29470;53.550;9.926;2022-07-23T13:47:52;2.47;;;0.98;;
43823;SDS011;29470;53.550;9.926;2022-07-23T13:52:56;1.77;;;0.73;;
43823;SDS011;29470;53.550;9.926;2022-07-23T13:57:59;2.25;;;0.82;;
43823;SDS011;29470;53.550;9.926;2022-07-23T14:03:02;1.20;;;0.77;;
43823;SDS011;29470;53.550;9.926;2022-07-23T14:08:07;2.08;;;0.70;;
43823;SDS011;29470;53.550;9.926;2022-07-23T14:13:11;2.78;;;0.75;;
43823;SDS011;29470;53.550;9.926;2022-07-23T14:18:14;2.20;;;0.90;;
43823;SDS011;29470;53.550;9.926;2022-07-23T14:23:19;2.38;;;0.85;;
43823;SDS011;29470;53.550;9.926;2022-07-23T14:28:22;1.20;;;0.90;;
43823;SDS011;29470;53.550;9.926;2022-07-23T14:33:25;2.85;;;0.93;;
43823;SDS011;29470;53.550;9.926;2022-07-23T14:38:29;2.30;;;0.73;;
43823;SDS011;29470;53.550;9.926;2022-07-23T14:43:32;1.38;;;0.70;;
43823;SDS011;29470;53.550;9.926;2022-07-23T14:48:39;2.67;;;1.10;;
43823;SDS011;29470;53.550;9.926;2022-07-23T14:53:43;1.90;;;0.90;;
43823;SDS011;29470;53.550;9.926;2022-07-23T14:58:46;2.83;;;0.93;;
43823;SDS011;29470;53.550;9.926;2022-07-23T15:03:49;2.10;;;0.93;;
43823;SDS011;29470;53.550;9.926;2022-07-23T15:08:53;2.97;;;0.90;;
43823;SDS011;29470;53.550;9.926;2022-07-23T15:13:56;1.67;;;0.80;;
43823;SDS011;29470;53.550;9.926;2022-07-23T15:19:00;2.92;;;0.80;;
43823;SDS011;29470;53.550;9.926;2022-07-23T15:24:05;2.05;;;0.82;;
43823;SDS011;29470;53.550;9.926;2022-07-23T15:29:08;2.35;;;1.00;;
43823;SDS011;29470;53.550;9.926;2022-07-23T15:34:11;2.97;;;0.80;;
43823;SDS011;29470;53.550;9.926;2022-07-23T15:39:15;2.88;;;0.85;;
43823;SDS011;29470;53.550;9.926;2022-07-23T15:44:18;4.07;;;1.10;;
43823;SDS011;29470;53.550;9.926;2022-07-23T15:49:29;2.25;;;1.00;;
43823;SDS011;29470;53.550;9.926;2022-07-23T15:54:34;2.70;;;1.20;;
43823;SDS011;29470;53.550;9.926;2022-07-23T15:59:37;2.83;;;0.95;;
43823;SDS011;29470;53.550;9.926;2022-07-23T16:04:42;1.70;;;0.90;;
43823;SDS011;29470;53.550;9.926;2022-07-23T16:09:47;2.35;;;1.00;;
43823;SDS011;29470;53.550;9.926;2022-07-23T16:14:50;1.75;;;1.00;;
43823;SDS011;29470;53.550;9.926;2022-07-23T16:19:52;1.80;;;0.90;;
43823;SDS011;29470;53.550;9.926;2022-07-23T16:24:58;2.83;;;0.90;;
43823;SDS011;29470;53.550;9.926;2022-07-23T16:30:01;2.97;;;1.00;;
43823;SDS011;29470;53.550;9.926;2022-07-23T16:35:05;4.22;;;1.48;;
43823;SDS011;29470;53.550;9.926;2022-07-23T16:40:16;1.73;;;0.90;;
43823;SDS011;29470;53.550;9.926;2022-07-23T16:45:19;4.03;;;1.00;;
43823;SDS011;29470;53.550;9.926;2022-07-23T16:50:22;2.20;;;1.00;;
43823;SDS011;29470;53.550;9.926;2022-07-23T16:55:26;4.07;;;1.25;;
43823;SDS011;29470;53.550;9.926;2022-07-23T17:00:29;3.60;;;1.00;;
43823;SDS011;29470;53.550;9.926;2022-07-23T17:05:32;1.42;;;0.85;;
43823;SDS011;29470;53.550;9.926;2022-07-23T17:10:36;3.00;;;1.00;;
43823;SDS011;29470;53.550;9.926;2022-07-23T17:15:39;2.60;;;1.20;;
43823;SDS011;29470;53.550;9.926;2022-07-23T17:20:42;1.92;;;1.05;;
43823;SDS011;29470;53.550;9.926;2022-07-23T17:25:46;2.20;;;1.15;;
43823;SDS011;29470;53.550;9.926;2022-07-23T17:30:49;5.05;;;3.00;;
43823;SDS011;29470;53.550;9.926;2022-07-23T17:35:52;1.20;;;1.00;;
43823;SDS011;29470;53.550;9.926;2022-07-23T17:40:58;2.47;;;1.20;;
43823;SDS011;29470;53.550;9.926;2022-07-23T17:46:01;4.85;;;1.13;;
43823;SDS011;29470;53.550;9.926;2022-07-23T17:51:05;2.53;;;1.13;;
43823;SDS011;29470;53.550;9.926;2022-07-23T17:56:10;3.33;;;1.80;;
43823;SDS011;29470;53.550;9.926;2022-07-23T18:01:12;3.10;;;1.10;;
43823;SDS011;29470;53.550;9.926;2022-07-23T18:06:17;3.67;;;1.10;;
43823;SDS011;29470;53.550;9.926;2022-07-23T18:11:21;2.97;;;1.52;;
43823;SDS011;29470;53.550;9.926;2022-07-23T18:16:25;5.22;;;1.50;;
43823;SDS011;29470;53.550;9.926;2022-07-23T18:21:28;1.77;;;1.20;;
43823;SDS011;29470;53.550;9.926;2022-07-23T18:26:32;5.28;;;1.38;;
43823;SDS011;29470;53.550;9.926;2022-07-23T18:31:37;3.05;;;1.35;;
43823;SDS011;29470;53.550;9.926;2022-07-23T18:36:40;3.05;;;1.27;;
43823;SDS011;29470;53.550;9.926;2022-07-23T18:41:45;3.08;;;1.05;;
43823;SDS011;29470;53.550;9.926;2022-07-23T18:46:48;3.80;;;1.40;;
43823;SDS011;29470;53.550;9.926;2022-07-23T18:51:51;2.78;;;1.20;;
43823;SDS011;29470;53.550;9.926;2022-07-23T18:56:57;3.53;;;1.50;;
43823;SDS011;29470;53.550;9.926;2022-07-23T19:02:00;4.25;;;1.40;;
43823;SDS011;29470;53.550;9.926;2022-07-23T19:07:04;4.00;;;1.42;;
43823;SDS011;29470;53.550;9.926;2022-07-23T19:12:08;7.88;;;1.60;;
43823;SDS011;29470;53.550;9.926;2022-07-23T19:17:11;4.38;;;1.40;;
43823;SDS011;29470;53.550;9.926;2022-07-23T19:22:14;2.35;;;1.30;;
43823;SDS011;29470;53.550;9.926;2022-07-23T19:27:19;3.13;;;1.40;;
43823;SDS011;29470;53.550;9.926;2022-07-23T19:32:21;4.75;;;1.60;;
43823;SDS011;29470;53.550;9.926;2022-07-23T19:37:24;2.38;;;1.40;;
43823;SDS011;29470;53.550;9.926;2022-07-23T19:42:29;4.10;;;2.10;;
43823;SDS011;29470;53.550;9.926;2022-07-23T19:47:37;4.00;;;1.92;;
43823;SDS011;29470;53.550;9.926;2022-07-23T19:52:44;2.70;;;1.60;;
43823;SDS011;29470;53.550;9.926;2022-07-23T19:57:50;3.65;;;1.50;;
43823;SDS011;29470;53.550;9.926;2022-07-23T20:02:53;4.60;;;1.70;;
43823;SDS011;29470;53.550;9.926;2022-07-23T20:07:56;3.42;;;1.90;;
43823;SDS011;29470;53.550;9.926;2022-07-23T20:13:01;2.58;;;1.60;;
43823;SDS011;29470;53.550;9.926;2022-07-23T20:18:04;3.47;;;1.98;;
43823;SDS011;29470;53.550;9.926;2022-07-23T20:23:07;4.65;;;1.65;;
43823;SDS011;29470;53.550;9.926;2022-07-23T20:28:11;3.95;;;1.65;;
43823;SDS011;29470;53.550;9.926;2022-07-23T20:33:15;4.07;;;2.28;;
43823;SDS011;29470;53.550;9.926;2022-07-23T20:38:18;3.90;;;1.98;;
43823;SDS011;29470;53.550;9.926;2022-07-23T20:43:23;4.70;;;2.20;;
43823;SDS011;29470;53.550;9.926;2022-07-23T20:48:26;2.50;;;1.70;;
43823;SDS011;29470;53.550;9.926;2022-07-23T20:53:29;6.22;;;2.17;;
43823;SDS011;29470;53.550;9.926;2022-07-23T20:58:34;4.20;;;2.30;;
43823;SDS011;29470;53.550;9.926;2022-07-23T21:03:36;2.72;;;2.10;;
43823;SDS011;29470;53.550;9.926;2022-07-23T21:08:39;4.10;;;2.28;;
43823;SDS011;29470;53.550;9.926;2022-07-23T21:13:44;4.28;;;2.03;;
43823;SDS011;29470;53.550;9.926;2022-07-23T21:18:47;6.03;;;2.13;;
43823;SDS011;29470;53.550;9.926;2022-07-23T21:23:50;5.65;;;2.63;;
43823;SDS011;29470;53.550;9.926;2022-07-23T21:28:55;5.57;;;2.20;;
43823;SDS011;29470;53.550;9.926;2022-07-23T21:33:58;4.95;;;2.50;;
43823;SDS011;29470;53.550;9.926;2022-07-23T21:39:01;3.92;;;2.30;;
43823;SDS011;29470;53.550;9.926;2022-07-23T21:44:06;2.97;;;2.30;;
43823;SDS011;29470;53.550;9.926;2022-07-23T21:49:08;4.32;;;2.78;;
43823;SDS011;29470;53.550;9.926;2022-07-23T21:54:12;5.80;;;2.80;;
43823;SDS011;29470;53.550;9.926;2022-07-23T21:59:18;4.22;;;2.40;;
43823;SDS011;29470;53.550;9.926;2022-07-23T22:04:21;4.72;;;2.80;;
43823;SDS011;29470;53.550;9.926;2022-07-23T22:09:25;3.25;;;2.10;;
43823;SDS011;29470;53.550;9.926;2022-07-23T22:14:29;4.25;;;2.50;;
43823;SDS011;29470;53.550;9.926;2022-07-23T22:19:32;4.15;;;2.70;;
43823;SDS011;29470;53.550;9.926;2022-07-23T22:24:35;5.07;;;2.50;;
43823;SDS011;29470;53.550;9.926;2022-07-23T22:29:39;4.22;;;2.60;;
43823;SDS011;29470;53.550;9.926;2022-07-23T22:34:42;5.88;;;2.80;;
43823;SDS011;29470;53.550;9.926;2022-07-23T22:39:45;4.97;;;3.00;;
43823;SDS011;29470;53.550;9.926;2022-07-23T22:44:49;6.50;;;2.92;;
43823;SDS011;29470;53.550;9.926;2022-07-23T22:49:52;4.32;;;2.65;;
43823;SDS011;29470;53.550;9.926;2022-07-23T22:54:56;4.93;;;3.35;;
43823;SDS011;29470;53.550;9.926;2022-07-23T23:00:00;5.53;;;2.78;;
43823;SDS011;29470;53.550;9.926;2022-07-23T23:05:03;4.32;;;2.83;;
43823;SDS011;29470;53.550;9.926;2022-07-23T23:10:07;4.63;;;2.72;;
43823;SDS011;29470;53.550;9.926;2022-07-23T23:15:11;5.57;;;3.00;;
43823;SDS011;29470;53.550;9.926;2022-07-23T23:20:14;5.43;;;3.28;;
43823;SDS011;29470;53.550;9.926;2022-07-23T23:25:17;4.45;;;3.10;;
43823;SDS011;29470;53.550;9.926;2022-07-23T23:30:22;5.20;;;3.30;;
43823;SDS011;29470;53.550;9.926;2022-07-23T23:35:25;4.82;;;3.17;;
43823;SDS011;29470;53.550;9.926;2022-07-23T23:40:28;5.55;;;3.50;;
43823;SDS011;29470;53.550;9.926;2022-07-23T23:45:32;6.32;;;3.35;;
43823;SDS011;29470;53.550;9.926;2022-07-23T23:50:35;5.57;;;3.85;;
43823;SDS011;29470;53.550;9.926;2022-07-23T23:55:38;5.53;;;3.40;;
